EW7684 Camano Island WA US current weather conditions

sailwx.info

Wind from 094 at 0 knots gusting 1

Air temperature 5.0° C
Dewpoint 4.4° C

Last reported at 2019-Dec-15 23:05 UTC.
Time now 2019-Dec-16 00:08 UTC

Location: N 48°12' W 122°32'.
View on Google Maps.

See reports from other nearby stations

  
Tides and Currents Weather Stations Pressure Air Temp Water Temp Dewpoint Dewpoint Depression Visibility Wind Speed Wind Dir Waves Ship Positions
date/time (UTC)wind fromknots sea level pressurealtimeterstation pressurevisibilityair tempwater tempwave heightnotes
2019-Dec-15 23:05 094 0 gusting 1 5.0
2019-Dec-15 23:00 090 0 gusting 1 5.0
2019-Dec-15 22:55 089 0 gusting 1 5.0
2019-Dec-15 22:50 090 0 gusting 2 5.6
2019-Dec-15 22:45 092 0 gusting 2 5.6
2019-Dec-15 22:40 101 0 gusting 3 5.6
2019-Dec-15 22:35 101 0 gusting 3 5.6
2019-Dec-15 22:30 109 0 gusting 5 5.6
2019-Dec-15 22:25 127 1 gusting 5 5.6
2019-Dec-15 22:20 127 1 gusting 4 5.6
2019-Dec-15 22:15 123 0 gusting 4 6.1
2019-Dec-15 22:10 125 0 gusting 2 6.1
2019-Dec-15 22:05 127 0 gusting 4 5.6
2019-Dec-15 22:00 125 0 gusting 4 5.6
2019-Dec-15 21:55 124 0 gusting 3 5.6
2019-Dec-15 21:50 129 1 gusting 4 6.1
2019-Dec-15 21:45 126 1 gusting 5 5.6
2019-Dec-15 21:40 121 1 gusting 5 5.6
2019-Dec-15 21:35 123 0 gusting 4 5.6
2019-Dec-15 21:30 109 0 gusting 4 5.6
2019-Dec-15 21:25 105 5.6
2019-Dec-15 21:20 108 5.6
2019-Dec-15 21:15 105 0 gusting 4 5.0
2019-Dec-15 21:10 093 0 gusting 3 5.0
2019-Dec-15 21:05 088 0 gusting 1 5.6
2019-Dec-15 21:00 098 5.6
2019-Dec-15 20:55 110 5.6
2019-Dec-15 20:50 118 0 gusting 2 5.6
2019-Dec-15 20:45 131 0 gusting 1 5.6
2019-Dec-15 20:40 132 5.6
2019-Dec-15 20:35 157 5.6
2019-Dec-15 20:30 191 6.1
2019-Dec-15 20:25 163 0 gusting 2 6.1
2019-Dec-15 20:20 154 0 gusting 2 5.6
2019-Dec-15 20:15 166 0 gusting 3 5.6
2019-Dec-15 20:10 184 0 gusting 3 5.6
2019-Dec-15 20:05 173 0 gusting 3 5.6
2019-Dec-15 20:00 143 5.6
2019-Dec-15 19:55 111 5.0
2019-Dec-15 19:50 102 0 gusting 2 5.0
2019-Dec-15 19:45 103 0 gusting 2 4.4
2019-Dec-15 19:40 097 4.4
2019-Dec-15 19:35 092 0 gusting 1 4.4
2019-Dec-15 19:30 094 0 gusting 1 4.4
2019-Dec-15 19:25 092 0 gusting 1 4.4
2019-Dec-15 19:20 089 0 gusting 2 4.4
2019-Dec-15 19:15 090 4.4
2019-Dec-15 19:10 088 4.4
2019-Dec-15 19:05 090 4.4
2019-Dec-15 19:00 115 3.9
2019-Dec-15 18:55 125 3.9
2019-Dec-15 18:50 101 3.9
2019-Dec-15 18:45 092 3.9
2019-Dec-15 18:40 089 3.9
2019-Dec-15 18:35 088 3.9
2019-Dec-15 18:30 089 3.9
2019-Dec-15 18:25 3.9
2019-Dec-15 18:20 262 3.9
2019-Dec-15 18:15 277 1 gusting 6 3.9
2019-Dec-15 18:10 281 3 gusting 6 3.9
2019-Dec-15 18:05 284 1 gusting 4 4.4
2019-Dec-15 18:00 282 4.4
2019-Dec-15 17:55 4.4
2019-Dec-15 17:50 155 4.4
2019-Dec-15 17:45 140 4.4
2019-Dec-15 17:40 094 4.4
2019-Dec-15 17:35 094 3.9
2019-Dec-15 17:30 094 3.9
2019-Dec-15 17:25 095 3.9
2019-Dec-15 17:20 094 3.9
2019-Dec-15 17:15 090 3.9
2019-Dec-15 17:10 097 3.9
2019-Dec-15 17:05 083 3.9
2019-Dec-15 17:00 101 3.9
2019-Dec-15 16:55 133 3.3
2019-Dec-15 16:50 135 0 gusting 2 3.3
2019-Dec-15 16:45 089 0 gusting 1 3.3
2019-Dec-15 16:40 089 0 gusting 1 3.3
2019-Dec-15 16:35 089 0 gusting 1 3.3
2019-Dec-15 16:30 089 0 gusting 1 3.3
2019-Dec-15 16:25 089 0 gusting 1 3.3
2019-Dec-15 16:20 089 0 gusting 1 3.3
2019-Dec-15 16:15 089 0 gusting 1 3.3
2019-Dec-15 16:10 089 0 gusting 1 3.3
2019-Dec-15 16:05 089 0 gusting 1 3.3
2019-Dec-15 16:00 089 0 gusting 1 3.3
2019-Dec-15 15:55 089 0 gusting 1 3.3
2019-Dec-15 15:50 089 0 gusting 1 3.3
2019-Dec-15 15:45 089 0 gusting 1 3.3
2019-Dec-15 15:40 089 0 gusting 1 3.3
2019-Dec-15 15:35 089 0 gusting 1 3.3
2019-Dec-15 15:30 089 0 gusting 1 3.3
2019-Dec-15 15:25 089 0 gusting 1 3.3
2019-Dec-15 15:20 089 0 gusting 1 3.3
2019-Dec-15 15:15 089 0 gusting 1 3.3
2019-Dec-15 15:10 089 0 gusting 1 3.3
2019-Dec-15 15:05 089 0 gusting 1 3.3
2019-Dec-15 15:00 089 0 gusting 1 3.3
2019-Dec-15 14:55 089 0 gusting 1 3.3
2019-Dec-15 14:50 089 0 gusting 1 3.3
2019-Dec-15 14:45 089 0 gusting 1 3.3
2019-Dec-15 14:40 089 0 gusting 1 3.3
2019-Dec-15 14:35 089 0 gusting 1 3.3
2019-Dec-15 14:30 089 0 gusting 1 3.3
2019-Dec-15 14:25 089 0 gusting 1 3.3
2019-Dec-15 14:20 089 0 gusting 1 3.3
2019-Dec-15 14:15 089 0 gusting 1 3.3
2019-Dec-15 14:10 089 0 gusting 1 3.3
2019-Dec-15 14:05 089 0 gusting 1 3.3
2019-Dec-15 14:00 089 0 gusting 1 3.3
2019-Dec-15 13:55 089 0 gusting 1 3.3
2019-Dec-15 13:50 089 0 gusting 1 3.3
2019-Dec-15 13:45 089 0 gusting 1 3.3
2019-Dec-15 13:40 089 0 gusting 1 3.3
2019-Dec-15 13:35 089 0 gusting 1 3.3
2019-Dec-15 13:30 089 0 gusting 1 3.3
2019-Dec-15 13:25 089 0 gusting 1 3.3
2019-Dec-15 13:20 089 0 gusting 1 3.3
2019-Dec-15 13:15 089 0 gusting 1 3.3
2019-Dec-15 13:10 089 0 gusting 1 3.3
2019-Dec-15 13:05 089 0 gusting 1 3.3
2019-Dec-15 13:00 089 0 gusting 1 3.3
2019-Dec-15 12:55 089 0 gusting 1 3.3
2019-Dec-15 12:50 089 0 gusting 1 3.3
2019-Dec-15 12:45 089 0 gusting 1 3.3
2019-Dec-15 12:40 089 0 gusting 1 3.3
2019-Dec-15 12:35 089 0 gusting 1 3.3
2019-Dec-15 12:30 089 0 gusting 1 3.3
2019-Dec-15 12:25 089 0 gusting 1 3.3
2019-Dec-15 12:20 089 0 gusting 1 3.3
2019-Dec-15 12:15 089 0 gusting 1 3.3
2019-Dec-15 12:10 089 0 gusting 1 3.3
2019-Dec-15 12:05 089 0 gusting 1 3.3
2019-Dec-15 12:00 089 0 gusting 1 3.3
2019-Dec-15 11:55 089 0 gusting 1 3.3
2019-Dec-15 11:50 089 0 gusting 1 3.3
2019-Dec-15 11:45 089 0 gusting 1 3.3
2019-Dec-15 11:40 089 0 gusting 1 3.3
2019-Dec-15 11:35 089 0 gusting 1 3.3
2019-Dec-15 11:30 089 0 gusting 1 3.3
2019-Dec-15 11:25 089 0 gusting 1 3.3
2019-Dec-15 11:20 089 0 gusting 1 3.3
2019-Dec-15 11:15 089 0 gusting 1 3.3
2019-Dec-15 11:10 089 0 gusting 1 3.3
2019-Dec-15 11:05 089 0 gusting 1 3.3
2019-Dec-15 11:00 089 0 gusting 1 3.3
2019-Dec-15 10:55 089 0 gusting 1 3.3
2019-Dec-15 10:50 089 0 gusting 1 3.3
2019-Dec-15 10:45 089 0 gusting 1 3.3
2019-Dec-15 10:40 089 0 gusting 1 3.3
2019-Dec-15 10:35 089 0 gusting 1 3.3
2019-Dec-15 10:30 089 0 gusting 1 3.3
2019-Dec-15 10:25 089 0 gusting 1 3.3
2019-Dec-15 10:20 089 0 gusting 1 3.3
2019-Dec-15 10:15 089 0 gusting 1 3.3
2019-Dec-15 10:10 089 0 gusting 1 3.3
2019-Dec-15 10:05 089 0 gusting 1 3.3
2019-Dec-15 10:00 089 0 gusting 1 3.3
2019-Dec-15 09:55 089 0 gusting 1 3.3
2019-Dec-15 09:50 089 0 gusting 1 3.3
2019-Dec-15 09:45 089 0 gusting 1 3.3
2019-Dec-15 09:40 089 0 gusting 1 3.3
2019-Dec-15 09:35 089 0 gusting 1 3.3
2019-Dec-15 09:30 089 0 gusting 1 3.3
2019-Dec-15 09:25 089 0 gusting 1 3.3
2019-Dec-15 09:20 089 0 gusting 1 3.3
2019-Dec-15 09:15 089 0 gusting 1 3.3
2019-Dec-15 09:10 089 0 gusting 1 3.3
2019-Dec-15 09:05 089 0 gusting 1 3.3
2019-Dec-15 09:00 089 0 gusting 1 3.3
2019-Dec-15 08:55 089 0 gusting 1 3.3
2019-Dec-15 08:50 089 0 gusting 1 3.3
2019-Dec-15 08:45 089 0 gusting 1 3.3
2019-Dec-15 08:40 089 0 gusting 1 3.3
2019-Dec-15 08:35 089 0 gusting 1 3.3
2019-Dec-15 08:30 089 0 gusting 1 3.3
2019-Dec-15 08:25 089 0 gusting 1 3.3
2019-Dec-15 08:20 089 0 gusting 1 3.3
2019-Dec-15 08:15 089 0 gusting 1 3.3
2019-Dec-15 08:10 089 0 gusting 1 3.3
2019-Dec-15 08:05 089 0 gusting 1 3.3
2019-Dec-15 08:00 089 0 gusting 1 3.3
2019-Dec-15 07:55 082 0 gusting 1 3.3
2019-Dec-15 07:50 081 1 gusting 3 3.3
2019-Dec-15 07:45 085 1 gusting 3 3.3
2019-Dec-15 07:40 087 1 gusting 2 3.3
2019-Dec-15 07:35 083 1 gusting 2 3.3
2019-Dec-15 07:30 082 1 gusting 1 3.3
2019-Dec-15 07:25 081 1 gusting 1 3.3
2019-Dec-15 07:20 082 1 gusting 2 3.3
2019-Dec-15 07:15 083 2 gusting 2 3.3
2019-Dec-15 07:10 083 2 gusting 3 3.3
2019-Dec-15 07:05 080 2 gusting 3 3.3
2019-Dec-15 07:00 082 2 gusting 4 3.3
2019-Dec-15 06:55 086 2 gusting 4 3.3
2019-Dec-15 06:50 087 2 gusting 3 3.3
2019-Dec-15 06:45 084 2 gusting 3 3.3
2019-Dec-15 06:40 084 1 gusting 3 2.8
2019-Dec-15 06:35 090 0 gusting 1 2.8
2019-Dec-15 06:30 097 2.8
2019-Dec-15 06:25 091 2.8
2019-Dec-15 06:20 087 2.8
2019-Dec-15 06:15 088 2.8
2019-Dec-15 06:10 313 1 gusting 5 2.8
2019-Dec-15 06:05 318 2 gusting 6 3.3
2019-Dec-15 06:00 298 2 gusting 6 3.9
2019-Dec-15 05:55 255 0 gusting 3 3.9
2019-Dec-15 05:50 073 0 gusting 1 4.4
2019-Dec-15 05:45 077 0 gusting 0 4.4
2019-Dec-15 05:40 077 0 gusting 0 4.4
2019-Dec-15 05:35 077 0 gusting 0 4.4
2019-Dec-15 05:30 077 0 gusting 0 4.4
2019-Dec-15 05:25 077 0 gusting 1 4.4
2019-Dec-15 05:20 081 1 gusting 1 4.4
2019-Dec-15 05:15 087 0 gusting 1 4.4
2019-Dec-15 05:10 090 0 gusting 1 4.4
2019-Dec-15 05:05 087 1 gusting 2 4.4
2019-Dec-15 05:00 084 1 gusting 2 4.4
2019-Dec-15 04:55 086 0 gusting 1 4.4
2019-Dec-15 04:50 092 0 gusting 1 4.4
2019-Dec-15 04:45 091 0 gusting 0 4.4
2019-Dec-15 04:40 091 0 gusting 0 4.4
2019-Dec-15 04:35 091 0 gusting 0 4.4
2019-Dec-15 04:30 091 0 gusting 0 4.4
2019-Dec-15 04:25 083 0 gusting 1 4.4
2019-Dec-15 04:20 074 0 gusting 1 4.4
2019-Dec-15 04:15 073 0 gusting 1 4.4
2019-Dec-15 04:10 073 0 gusting 1 4.4
2019-Dec-15 04:05 073 0 gusting 0 4.4
2019-Dec-15 04:00 073 0 gusting 1 4.4
2019-Dec-15 03:55 076 1 gusting 1 4.4
2019-Dec-15 03:50 079 1 gusting 1 4.4
2019-Dec-15 03:45 080 1 gusting 1 4.4
2019-Dec-15 03:40 081 1 gusting 1 4.4
2019-Dec-15 03:35 083 1 gusting 1 4.4
2019-Dec-15 03:30 084 1 gusting 2 4.4
2019-Dec-15 03:25 083 1 gusting 2 4.4
2019-Dec-15 03:20 083 1 gusting 2 4.4
2019-Dec-15 03:15 085 0 gusting 1 4.4
2019-Dec-15 03:10 089 0 gusting 1 4.4
2019-Dec-15 03:05 092 4.4
2019-Dec-15 03:00 092 4.4
2019-Dec-15 02:55 092 4.4
2019-Dec-15 02:50 093 0 gusting 1 4.4
2019-Dec-15 02:45 096 4.4
2019-Dec-15 02:40 094 0 gusting 1 4.4
2019-Dec-15 02:35 091 1 gusting 1 5.0
2019-Dec-15 02:30 090 1 gusting 1 5.0
2019-Dec-15 02:25 087 1 gusting 2 5.0
2019-Dec-15 02:20 086 1 gusting 2 5.0
2019-Dec-15 02:15 088 1 gusting 2 5.0
2019-Dec-15 02:10 085 1 gusting 2 5.0
2019-Dec-15 02:05 084 1 gusting 2 5.0
2019-Dec-15 02:00 086 1 gusting 2 5.0
2019-Dec-15 01:55 085 1 gusting 2 5.0
2019-Dec-15 01:50 085 1 gusting 2 5.0
2019-Dec-15 01:45 088 1 gusting 2 5.0
2019-Dec-15 01:40 088 0 gusting 1 5.0
2019-Dec-15 01:35 088 0 gusting 1 5.0
2019-Dec-15 01:30 090 0 gusting 1 5.0
2019-Dec-15 01:25 089 0 gusting 1 5.0
2019-Dec-15 01:20 086 5.0
2019-Dec-15 01:15 090 5.0
2019-Dec-15 01:10 092 0 gusting 1 5.0
2019-Dec-15 01:05 090 0 gusting 1 5.0
2019-Dec-15 01:00 088 0 gusting 1 5.0
2019-Dec-15 00:55 090 5.0
2019-Dec-15 00:50 089 5.0
2019-Dec-15 00:45 084 0 gusting 1 5.0
2019-Dec-15 00:40 086 0 gusting 2 5.0
2019-Dec-15 00:35 088 0 gusting 2 5.6
2019-Dec-15 00:30 086 0 gusting 1 5.6
2019-Dec-15 00:25 087 0 gusting 1 5.6
2019-Dec-15 00:20 086 0 gusting 1 5.6
2019-Dec-15 00:15 087 0 gusting 1 5.6
2019-Dec-15 00:10 090 5.6
2019-Dec-15 00:05 092 5.6
2019-Dec-15 00:00 090 5.6
2019-Dec-14 23:55 084 5.6
2019-Dec-14 23:50 087 5.6
2019-Dec-14 23:45 090 6.1
2019-Dec-14 23:40 6.1
2019-Dec-14 23:35 6.1
2019-Dec-14 23:30 080 6.1
2019-Dec-14 23:25 081 6.1
2019-Dec-14 23:20 089 6.1
2019-Dec-14 23:15 101 6.1
2019-Dec-14 23:10 101 6.1
2019-Dec-14 23:05 101 6.1
2019-Dec-14 23:00 101 6.1
2019-Dec-14 22:55 101 6.1
2019-Dec-14 22:50 101 6.1
2019-Dec-14 22:45 107 6.1
2019-Dec-14 22:40 123 6.7
2019-Dec-14 22:35 134 6.7
2019-Dec-14 22:30 132 6.7
2019-Dec-14 22:25 131 6.7
2019-Dec-14 22:20 067 6.7
2019-Dec-14 22:15 057 6.7
2019-Dec-14 22:10 079 6.7
2019-Dec-14 22:05 093 6.7
2019-Dec-14 22:00 117 0 gusting 2 6.7
2019-Dec-14 21:55 128 0 gusting 2 6.7
2019-Dec-14 21:50 129 0 gusting 2 7.2
2019-Dec-14 21:45 248 0 gusting 2 7.2
2019-Dec-14 21:40 267 7.2
2019-Dec-14 21:35 232 7.8
2019-Dec-14 21:30 222 7.8
2019-Dec-14 21:25 173 7.8
2019-Dec-14 21:20 166 0 gusting 2 7.8
2019-Dec-14 21:05 136 7.2
2019-Dec-14 21:00 138 7.2
2019-Dec-14 20:55 138 6.7
2019-Dec-14 20:50 078 6.7
2019-Dec-14 20:45 078 6.7
2019-Dec-14 20:40 6.7
2019-Dec-14 20:35 136 6.7
2019-Dec-14 20:30 173 6.7
2019-Dec-14 20:25 130 6.7
2019-Dec-14 20:20 141 6.7
2019-Dec-14 20:15 240 6.7
2019-Dec-14 20:10 189 6.7
2019-Dec-14 20:05 188 6.7
2019-Dec-14 20:00 127 0 gusting 3 6.7
2019-Dec-14 19:55 124 0 gusting 3 6.1
2019-Dec-14 19:50 148 0 gusting 4 6.1
2019-Dec-14 19:45 148 0 gusting 4 6.1
2019-Dec-14 19:40 132 6.1
2019-Dec-14 19:35 114 6.1
2019-Dec-14 19:30 106 6.1
2019-Dec-14 19:25 119 6.1
2019-Dec-14 19:20 121 6.1
2019-Dec-14 19:15 111 6.1
2019-Dec-14 19:10 111 6.1
2019-Dec-14 19:05 135 6.1
2019-Dec-14 19:00 119 6.1
2019-Dec-14 18:55 125 6.1
2019-Dec-14 18:50 147 5.6
2019-Dec-14 18:45 140 5.6
2019-Dec-14 18:40 127 5.6
2019-Dec-14 18:35 124 5.6
2019-Dec-14 18:30 121 5.6
2019-Dec-14 18:25 136 5.6
2019-Dec-14 18:20 135 5.6
2019-Dec-14 18:15 110 5.6
2019-Dec-14 18:10 089 0 gusting 5 5.6
2019-Dec-14 18:05 090 0 gusting 5 5.6
2019-Dec-14 18:00 097 5.6
2019-Dec-14 17:55 106 5.6
2019-Dec-14 17:50 116 5.0
2019-Dec-14 17:45 094 5.0
2019-Dec-14 17:40 070 5.0
2019-Dec-14 17:35 123 5.0
2019-Dec-14 17:30 123 5.0
2019-Dec-14 17:25 120 5.0
2019-Dec-14 17:20 111 5.0
2019-Dec-14 17:15 130 5.0
2019-Dec-14 17:10 125 5.0
2019-Dec-14 17:05 097 5.0
2019-Dec-14 17:00 087 0 gusting 2 4.4
2019-Dec-14 16:55 087 0 gusting 2 4.4
2019-Dec-14 16:50 087 0 gusting 2 -67.8
2019-Dec-14 16:45 087 0 gusting 2 -67.8
2019-Dec-14 16:40 087 0 gusting 2 -67.8
2019-Dec-14 16:35 087 0 gusting 2 -67.8
2019-Dec-14 16:30 087 0 gusting 2 -67.8
2019-Dec-14 16:25 087 0 gusting 2 -67.8
2019-Dec-14 16:20 087 0 gusting 2 -67.8
2019-Dec-14 16:15 087 0 gusting 2 -67.8
2019-Dec-14 16:10 087 0 gusting 2 -67.8
2019-Dec-14 16:05 087 0 gusting 2 -67.8
2019-Dec-14 16:00 087 0 gusting 2 -67.8
2019-Dec-14 15:55 087 0 gusting 2 -67.8
2019-Dec-14 15:50 087 0 gusting 2 -67.8
2019-Dec-14 15:45 087 0 gusting 2 -67.8
2019-Dec-14 15:40 087 0 gusting 2 -67.8
2019-Dec-14 15:35 087 0 gusting 2 -67.8
2019-Dec-14 15:30 087 0 gusting 2 -67.8
2019-Dec-14 15:25 087 0 gusting 2 -67.8
2019-Dec-14 15:20 087 0 gusting 2 -67.8
2019-Dec-14 15:15 087 0 gusting 2 -67.8
2019-Dec-14 15:10 087 0 gusting 2 -67.8
2019-Dec-14 15:05 087 0 gusting 2 -67.8
2019-Dec-14 15:00 087 0 gusting 2 -67.8
2019-Dec-14 14:55 087 0 gusting 2 -67.8
2019-Dec-14 14:50 087 0 gusting 2 -67.8
2019-Dec-14 14:45 087 0 gusting 2 -67.8
2019-Dec-14 14:40 087 0 gusting 2 -67.8
2019-Dec-14 14:35 087 0 gusting 2 -67.8
2019-Dec-14 14:30 087 0 gusting 2 -67.8
2019-Dec-14 14:25 087 0 gusting 2 -67.8
2019-Dec-14 14:20 087 0 gusting 2 -67.8
2019-Dec-14 14:15 087 0 gusting 2 -67.8
2019-Dec-14 14:10 087 0 gusting 2 -67.8
2019-Dec-14 14:05 087 0 gusting 2 -67.8
2019-Dec-14 14:00 087 0 gusting 2 -67.8
2019-Dec-14 13:55 087 0 gusting 2 -67.8
2019-Dec-14 13:50 087 0 gusting 2 -67.8
2019-Dec-14 13:45 087 0 gusting 2 -67.8
2019-Dec-14 13:40 087 0 gusting 2 -67.8
2019-Dec-14 13:35 087 0 gusting 2 -67.8
2019-Dec-14 13:30 087 0 gusting 2 -67.8
2019-Dec-14 13:25 087 0 gusting 2 -67.8
2019-Dec-14 13:20 087 0 gusting 2 -67.8
2019-Dec-14 13:15 087 0 gusting 2 -67.8
2019-Dec-14 13:10 087 0 gusting 2 -67.8
2019-Dec-14 13:05 087 0 gusting 2 -67.8
2019-Dec-14 13:00 087 0 gusting 2 -67.8
2019-Dec-14 12:55 087 0 gusting 2 -67.8
2019-Dec-14 12:50 087 0 gusting 2 -67.8
2019-Dec-14 12:45 087 0 gusting 2 -67.8
2019-Dec-14 12:40 087 0 gusting 2 -67.8
2019-Dec-14 12:35 087 0 gusting 2 -67.8
2019-Dec-14 12:30 087 0 gusting 2 -67.8
2019-Dec-14 12:25 087 0 gusting 2 -67.8
2019-Dec-14 12:20 087 0 gusting 2 -67.8
2019-Dec-14 12:15 087 0 gusting 2 -67.8
2019-Dec-14 12:10 087 0 gusting 2 -67.8
2019-Dec-14 12:05 087 0 gusting 2 -67.8
2019-Dec-14 12:00 087 0 gusting 2 -67.8
2019-Dec-14 11:55 087 0 gusting 2 -67.8
2019-Dec-14 11:50 087 0 gusting 2 -67.8
2019-Dec-14 11:45 087 0 gusting 2 -67.8
2019-Dec-14 11:40 087 0 gusting 2 -67.8
2019-Dec-14 11:35 087 0 gusting 2 -67.8
2019-Dec-14 11:30 087 0 gusting 2 -67.8
2019-Dec-14 11:25 087 0 gusting 2 -67.8
2019-Dec-14 11:20 087 0 gusting 2 -67.8
2019-Dec-14 11:15 087 0 gusting 2 -67.8
2019-Dec-14 11:10 087 0 gusting 2 -67.8
2019-Dec-14 11:05 087 0 gusting 2 -67.8
2019-Dec-14 11:00 087 0 gusting 2 -67.8
2019-Dec-14 10:55 087 0 gusting 2 -67.8
2019-Dec-14 10:50 087 0 gusting 2 -67.8
2019-Dec-14 10:45 087 0 gusting 2 -67.8
2019-Dec-14 10:40 087 0 gusting 2 -67.8
2019-Dec-14 10:35 087 0 gusting 2 -67.8
2019-Dec-14 10:30 087 0 gusting 2 -67.8
2019-Dec-14 10:25 087 0 gusting 2 -67.8
2019-Dec-14 10:20 087 0 gusting 2 -67.8
2019-Dec-14 10:15 087 0 gusting 2 -67.8
2019-Dec-14 10:10 087 0 gusting 2 -67.8
2019-Dec-14 10:05 087 0 gusting 2 -67.8
2019-Dec-14 10:00 087 0 gusting 2 -67.8
2019-Dec-14 09:55 087 0 gusting 2 -67.8
2019-Dec-14 09:50 087 0 gusting 2 -67.8
2019-Dec-14 09:45 087 0 gusting 2 -67.8
2019-Dec-14 09:40 087 0 gusting 2 -67.8
2019-Dec-14 09:35 087 0 gusting 2 -67.8
2019-Dec-14 09:30 087 0 gusting 2 -67.8
2019-Dec-14 09:25 087 0 gusting 2 -67.8
2019-Dec-14 09:20 087 0 gusting 2 -67.8
2019-Dec-14 09:05 087 0 gusting 2 -67.8
2019-Dec-14 09:00 087 0 gusting 2 -67.8
2019-Dec-14 08:55 090 0 gusting 2 5.0
2019-Dec-14 08:50 089 0 gusting 2 5.0
2019-Dec-14 08:45 088 0 gusting 2 5.0
2019-Dec-14 08:40 091 5.6
2019-Dec-14 08:35 094 5.6
2019-Dec-14 08:30 5.0
2019-Dec-14 08:25 5.6
2019-Dec-14 08:20 088 0 gusting 1 5.0
2019-Dec-14 08:15 088 0 gusting 2 5.0
2019-Dec-14 08:10 089 0 gusting 2 5.0
2019-Dec-14 08:05 089 0 gusting 1 5.0
2019-Dec-14 08:00 087 0 gusting 1 5.0
2019-Dec-14 07:55 090 0 gusting 1 5.0
2019-Dec-14 07:50 100 5.0
2019-Dec-14 07:45 104 5.0
2019-Dec-14 07:40 105 5.0
2019-Dec-14 07:35 093 5.0
2019-Dec-14 07:30 090 0 gusting 1 5.0
2019-Dec-14 07:25 091 0 gusting 1 5.0
2019-Dec-14 07:20 090 5.0
2019-Dec-14 07:15 092 5.0
2019-Dec-14 07:10 090 0 gusting 1 5.0
2019-Dec-14 07:05 090 0 gusting 1 5.0
2019-Dec-14 07:00 089 0 gusting 2 5.0
2019-Dec-14 06:55 089 1 gusting 2 5.0
2019-Dec-14 06:50 087 1 gusting 3 5.0
2019-Dec-14 06:45 086 2 gusting 3 5.0
2019-Dec-14 06:40 086 1 gusting 3 5.0
2019-Dec-14 06:35 085 1 gusting 3 5.0
2019-Dec-14 06:30 085 1 gusting 3 5.0
2019-Dec-14 06:25 085 2 gusting 3 5.0
2019-Dec-14 06:20 087 2 gusting 3 5.0
2019-Dec-14 06:15 086 1 gusting 3 5.0
2019-Dec-14 06:10 085 1 gusting 3 5.0
2019-Dec-14 06:05 087 1 gusting 2 5.0
2019-Dec-14 06:00 088 0 gusting 2 5.0
2019-Dec-14 05:55 085 1 gusting 2 5.0
2019-Dec-14 05:50 085 1 gusting 2 5.0
2019-Dec-14 05:45 088 0 gusting 2 5.0
2019-Dec-14 05:40 089 0 gusting 1 5.0
2019-Dec-14 05:35 089 0 gusting 1 5.0
2019-Dec-14 05:30 091 0 gusting 1 5.0
2019-Dec-14 05:25 090 0 gusting 1 5.0
2019-Dec-14 05:20 086 0 gusting 1 5.0
2019-Dec-14 05:15 087 0 gusting 1 5.0
2019-Dec-14 05:10 087 0 gusting 1 5.0
2019-Dec-14 05:05 093 0 gusting 1 5.0
2019-Dec-14 05:00 119 5.0
2019-Dec-14 04:55 121 5.0
2019-Dec-14 04:50 117 5.0
2019-Dec-14 04:45 090 5.0
2019-Dec-14 04:40 087 0 gusting 1 5.0
2019-Dec-14 04:35 087 1 gusting 1 5.0
2019-Dec-14 04:30 086 1 gusting 1 5.0
2019-Dec-14 04:25 084 1 gusting 2 5.0
2019-Dec-14 04:20 084 1 gusting 2 5.0
2019-Dec-14 04:15 082 1 gusting 2 5.0
2019-Dec-14 04:10 083 1 gusting 1 5.0
2019-Dec-14 04:05 083 1 gusting 1 5.0
2019-Dec-14 04:00 082 1 gusting 2 5.0
2019-Dec-14 03:55 083 1 gusting 2 5.0
2019-Dec-14 03:50 086 0 gusting 2 5.0
2019-Dec-14 03:45 088 0 gusting 1 5.0
2019-Dec-14 03:40 088 5.0
2019-Dec-14 03:35 5.0
2019-Dec-14 03:30 5.0
2019-Dec-14 03:25 083 5.0
2019-Dec-14 03:20 085 0 gusting 2 5.0
2019-Dec-14 03:15 086 1 gusting 2 5.6
2019-Dec-14 03:10 086 1 gusting 2 5.6
2019-Dec-14 03:05 084 1 gusting 3 5.6
2019-Dec-14 03:00 083 1 gusting 3 5.6
2019-Dec-14 02:55 084 1 gusting 2 5.6
2019-Dec-14 02:50 084 1 gusting 2 5.0
2019-Dec-14 02:45 084 1 gusting 2 5.0
2019-Dec-14 02:40 087 1 gusting 2 5.0
2019-Dec-14 02:35 088 1 gusting 2 5.0
2019-Dec-14 02:30 087 1 gusting 2 5.0
2019-Dec-14 02:25 086 1 gusting 2 5.0
2019-Dec-14 02:20 086 1 gusting 2 5.6
2019-Dec-14 02:15 086 1 gusting 2 5.6
2019-Dec-14 02:10 085 1 gusting 2 5.6
2019-Dec-14 02:05 085 1 gusting 2 5.6
2019-Dec-14 02:00 084 0 gusting 1 5.6
2019-Dec-14 01:55 083 1 gusting 1 5.6
2019-Dec-14 01:50 085 1 gusting 2 5.6
2019-Dec-14 01:45 086 1 gusting 2 5.6
2019-Dec-14 01:40 084 1 gusting 2 5.6
2019-Dec-14 01:35 081 1 gusting 1 5.6
2019-Dec-14 01:30 079 1 gusting 1 5.6
2019-Dec-14 01:25 079 0 gusting 1 5.6
2019-Dec-14 01:20 079 0 gusting 0 5.6
2019-Dec-14 01:15 081 0 gusting 1 5.6
2019-Dec-14 01:10 083 1 gusting 1 5.6
2019-Dec-14 01:05 085 1 gusting 1 5.6
2019-Dec-14 01:00 086 0 gusting 1 5.6
2019-Dec-14 00:55 086 0 gusting 0 6.1
2019-Dec-14 00:50 086 0 gusting 0 6.1
2019-Dec-14 00:45 086 0 gusting 1 6.1
2019-Dec-14 00:40 086 0 gusting 1 6.1
2019-Dec-14 00:35 090 0 gusting 1 6.1
2019-Dec-14 00:30 092 0 gusting 1 6.1
2019-Dec-14 00:25 097 6.1
2019-Dec-14 00:20 102 6.7
2019-Dec-14 00:15 104 6.7
2019-Dec-14 00:10 105 6.7
2019-Dec-14 00:05 106 6.7
2019-Dec-14 00:00 134 7.2